sensor_id;sensor_type;location;lat;lon;timestamp;P1;durP1;ratioP1;P2;durP2;ratioP2
45328;SDS011;31063;48.356;10.896;2022-09-20T00:01:54;7.43;;;1.97;;
45328;SDS011;31063;48.356;10.896;2022-09-20T00:04:19;5.50;;;2.13;;
45328;SDS011;31063;48.356;10.896;2022-09-20T00:06:45;5.73;;;2.10;;
45328;SDS011;31063;48.356;10.896;2022-09-20T00:09:10;5.53;;;2.17;;
45328;SDS011;31063;48.356;10.896;2022-09-20T00:11:36;4.17;;;2.03;;
45328;SDS011;31063;48.356;10.896;2022-09-20T00:14:03;5.50;;;1.98;;
45328;SDS011;31063;48.356;10.896;2022-09-20T00:16:33;4.82;;;2.08;;
45328;SDS011;31063;48.356;10.896;2022-09-20T00:19:02;2.47;;;1.67;;
45328;SDS011;31063;48.356;10.896;2022-09-20T00:21:29;3.22;;;1.90;;
45328;SDS011;31063;48.356;10.896;2022-09-20T00:23:56;5.22;;;2.17;;
45328;SDS011;31063;48.356;10.896;2022-09-20T00:26:22;3.38;;;2.00;;
45328;SDS011;31063;48.356;10.896;2022-09-20T00:28:49;3.33;;;1.88;;
45328;SDS011;31063;48.356;10.896;2022-09-20T00:31:15;5.75;;;2.05;;
45328;SDS011;31063;48.356;10.896;2022-09-20T00:33:42;5.43;;;2.53;;
45328;SDS011;31063;48.356;10.896;2022-09-20T00:36:26;5.72;;;2.30;;
45328;SDS011;31063;48.356;10.896;2022-09-20T00:38:55;6.47;;;2.00;;
45328;SDS011;31063;48.356;10.896;2022-09-20T00:41:22;5.72;;;2.38;;
45328;SDS011;31063;48.356;10.896;2022-09-20T00:43:48;5.13;;;2.27;;
45328;SDS011;31063;48.356;10.896;2022-09-20T00:46:24;4.85;;;2.58;;
45328;SDS011;31063;48.356;10.896;2022-09-20T00:49:09;4.70;;;2.38;;
45328;SDS011;31063;48.356;10.896;2022-09-20T00:51:36;3.05;;;2.15;;
45328;SDS011;31063;48.356;10.896;2022-09-20T00:54:05;4.45;;;2.22;;
45328;SDS011;31063;48.356;10.896;2022-09-20T00:56:33;2.63;;;2.20;;
45328;SDS011;31063;48.356;10.896;2022-09-20T01:02:27;7.88;;;2.30;;
45328;SDS011;31063;48.356;10.896;2022-09-20T01:04:51;4.07;;;2.20;;
45328;SDS011;31063;48.356;10.896;2022-09-20T01:07:18;4.45;;;2.50;;
45328;SDS011;31063;48.356;10.896;2022-09-20T01:09:46;6.30;;;2.15;;
45328;SDS011;31063;48.356;10.896;2022-09-20T01:12:13;7.18;;;2.45;;
45328;SDS011;31063;48.356;10.896;2022-09-20T01:14:47;6.47;;;2.50;;
45328;SDS011;31063;48.356;10.896;2022-09-20T01:17:15;4.90;;;2.40;;
45328;SDS011;31063;48.356;10.896;2022-09-20T01:22:22;6.30;;;3.20;;
45328;SDS011;31063;48.356;10.896;2022-09-20T01:25:16;4.63;;;2.50;;
45328;SDS011;31063;48.356;10.896;2022-09-20T01:27:54;4.00;;;2.80;;
45328;SDS011;31063;48.356;10.896;2022-09-20T01:30:23;4.37;;;2.63;;
45328;SDS011;31063;48.356;10.896;2022-09-20T01:33:08;3.78;;;2.33;;
45328;SDS011;31063;48.356;10.896;2022-09-20T01:35:43;5.03;;;2.60;;
45328;SDS011;31063;48.356;10.896;2022-09-20T01:38:28;6.25;;;2.83;;
45328;SDS011;31063;48.356;10.896;2022-09-20T01:41:11;4.75;;;3.00;;
45328;SDS011;31063;48.356;10.896;2022-09-20T01:43:47;6.10;;;3.10;;
45328;SDS011;31063;48.356;10.896;2022-09-20T02:00:31;8.55;;;3.05;;
45328;SDS011;31063;48.356;10.896;2022-09-20T02:06:03;5.05;;;2.80;;
45328;SDS011;31063;48.356;10.896;2022-09-20T02:23:20;8.30;;;2.33;;
45328;SDS011;31063;48.356;10.896;2022-09-20T02:26:29;8.25;;;2.60;;
45328;SDS011;31063;48.356;10.896;2022-09-20T02:29:09;4.32;;;2.17;;
45328;SDS011;31063;48.356;10.896;2022-09-20T02:43:04;5.10;;;2.40;;
45328;SDS011;31063;48.356;10.896;2022-09-20T02:45:41;5.13;;;2.70;;
45328;SDS011;31063;48.356;10.896;2022-09-20T02:48:23;6.30;;;2.25;;
45328;SDS011;31063;48.356;10.896;2022-09-20T02:56:17;2.92;;;2.20;;
45328;SDS011;31063;48.356;10.896;2022-09-20T03:10:49;7.07;;;2.40;;
45328;SDS011;31063;48.356;10.896;2022-09-20T04:01:06;5.57;;;2.60;;
45328;SDS011;31063;48.356;10.896;2022-09-20T04:09:35;5.28;;;2.75;;
45328;SDS011;31063;48.356;10.896;2022-09-20T04:12:25;5.93;;;3.25;;
45328;SDS011;31063;48.356;10.896;2022-09-20T04:20:43;8.82;;;3.50;;
45328;SDS011;31063;48.356;10.896;2022-09-20T04:23:51;7.80;;;3.00;;
45328;SDS011;31063;48.356;10.896;2022-09-20T04:26:28;7.57;;;3.33;;
45328;SDS011;31063;48.356;10.896;2022-09-20T04:29:04;10.65;;;3.33;;
45328;SDS011;31063;48.356;10.896;2022-09-20T04:31:36;8.88;;;3.20;;
45328;SDS011;31063;48.356;10.896;2022-09-20T04:34:12;5.95;;;2.85;;
45328;SDS011;31063;48.356;10.896;2022-09-20T04:37:00;6.47;;;3.00;;
45328;SDS011;31063;48.356;10.896;2022-09-20T04:39:46;10.10;;;3.20;;
45328;SDS011;31063;48.356;10.896;2022-09-20T04:42:33;7.43;;;2.85;;
45328;SDS011;31063;48.356;10.896;2022-09-20T04:45:38;7.53;;;3.13;;
45328;SDS011;31063;48.356;10.896;2022-09-20T04:51:09;6.90;;;3.10;;
45328;SDS011;31063;48.356;10.896;2022-09-20T04:56:55;4.18;;;2.65;;
45328;SDS011;31063;48.356;10.896;2022-09-20T05:00:00;8.50;;;3.30;;
45328;SDS011;31063;48.356;10.896;2022-09-20T05:28:00;6.28;;;3.35;;
45328;SDS011;31063;48.356;10.896;2022-09-20T05:30:48;11.75;;;5.32;;
45328;SDS011;31063;48.356;10.896;2022-09-20T05:44:03;12.75;;;5.32;;
45328;SDS011;31063;48.356;10.896;2022-09-20T05:46:57;9.57;;;4.43;;
45328;SDS011;31063;48.356;10.896;2022-09-20T06:00:17;8.07;;;3.03;;
45328;SDS011;31063;48.356;10.896;2022-09-20T06:13:40;7.63;;;3.22;;
45328;SDS011;31063;48.356;10.896;2022-09-20T06:16:36;4.82;;;2.63;;
45328;SDS011;31063;48.356;10.896;2022-09-20T06:21:49;10.20;;;3.10;;
45328;SDS011;31063;48.356;10.896;2022-09-20T06:27:12;6.95;;;3.78;;
45328;SDS011;31063;48.356;10.896;2022-09-20T06:29:44;7.70;;;3.92;;
45328;SDS011;31063;48.356;10.896;2022-09-20T06:32:17;9.27;;;4.00;;
45328;SDS011;31063;48.356;10.896;2022-09-20T06:34:43;12.65;;;4.00;;
45328;SDS011;31063;48.356;10.896;2022-09-20T06:40:25;8.95;;;3.35;;
45328;SDS011;31063;48.356;10.896;2022-09-20T06:43:16;11.05;;;3.92;;
45328;SDS011;31063;48.356;10.896;2022-09-20T06:45:43;9.52;;;3.50;;
45328;SDS011;31063;48.356;10.896;2022-09-20T06:48:09;8.68;;;4.07;;
45328;SDS011;31063;48.356;10.896;2022-09-20T06:50:37;13.13;;;3.95;;
45328;SDS011;31063;48.356;10.896;2022-09-20T06:53:03;6.38;;;3.38;;
45328;SDS011;31063;48.356;10.896;2022-09-20T06:55:31;10.20;;;3.70;;
45328;SDS011;31063;48.356;10.896;2022-09-20T07:00:33;8.77;;;3.15;;
45328;SDS011;31063;48.356;10.896;2022-09-20T07:02:59;7.18;;;3.53;;
45328;SDS011;31063;48.356;10.896;2022-09-20T07:05:25;12.17;;;4.07;;
45328;SDS011;31063;48.356;10.896;2022-09-20T07:07:57;8.03;;;3.67;;
45328;SDS011;31063;48.356;10.896;2022-09-20T07:10:27;9.45;;;3.47;;
45328;SDS011;31063;48.356;10.896;2022-09-20T07:12:59;9.98;;;3.30;;
45328;SDS011;31063;48.356;10.896;2022-09-20T07:15:26;13.25;;;3.83;;
45328;SDS011;31063;48.356;10.896;2022-09-20T07:20:18;12.43;;;4.38;;
45328;SDS011;31063;48.356;10.896;2022-09-20T07:22:44;8.73;;;3.72;;
45328;SDS011;31063;48.356;10.896;2022-09-20T07:27:36;9.75;;;3.40;;
45328;SDS011;31063;48.356;10.896;2022-09-20T07:32:30;13.98;;;4.43;;
45328;SDS011;31063;48.356;10.896;2022-09-20T07:34:55;18.80;;;4.30;;
45328;SDS011;31063;48.356;10.896;2022-09-20T07:37:21;11.33;;;4.00;;
45328;SDS011;31063;48.356;10.896;2022-09-20T07:39:47;8.87;;;4.00;;
45328;SDS011;31063;48.356;10.896;2022-09-20T07:42:12;8.63;;;4.23;;
45328;SDS011;31063;48.356;10.896;2022-09-20T07:44:38;11.43;;;4.27;;
45328;SDS011;31063;48.356;10.896;2022-09-20T07:47:06;11.88;;;4.32;;
45328;SDS011;31063;48.356;10.896;2022-09-20T07:49:34;10.77;;;4.45;;
45328;SDS011;31063;48.356;10.896;2022-09-20T07:52:00;10.18;;;4.63;;
45328;SDS011;31063;48.356;10.896;2022-09-20T07:54:26;12.05;;;4.63;;
45328;SDS011;31063;48.356;10.896;2022-09-20T07:56:52;8.13;;;4.80;;
45328;SDS011;31063;48.356;10.896;2022-09-20T07:59:18;7.28;;;5.03;;
45328;SDS011;31063;48.356;10.896;2022-09-20T08:01:44;12.20;;;5.22;;
45328;SDS011;31063;48.356;10.896;2022-09-20T08:04:10;9.32;;;4.72;;
45328;SDS011;31063;48.356;10.896;2022-09-20T08:06:37;9.23;;;5.03;;
45328;SDS011;31063;48.356;10.896;2022-09-20T08:09:10;11.88;;;5.57;;
45328;SDS011;31063;48.356;10.896;2022-09-20T08:11:38;11.57;;;4.95;;
45328;SDS011;31063;48.356;10.896;2022-09-20T08:14:06;15.75;;;5.82;;
45328;SDS011;31063;48.356;10.896;2022-09-20T08:16:37;15.20;;;6.10;;
45328;SDS011;31063;48.356;10.896;2022-09-20T08:19:05;13.32;;;5.35;;
45328;SDS011;31063;48.356;10.896;2022-09-20T08:21:31;8.73;;;5.50;;
45328;SDS011;31063;48.356;10.896;2022-09-20T08:23:58;13.02;;;5.65;;
45328;SDS011;31063;48.356;10.896;2022-09-20T08:26:25;13.32;;;4.68;;
45328;SDS011;31063;48.356;10.896;2022-09-20T08:28:56;9.93;;;4.78;;
45328;SDS011;31063;48.356;10.896;2022-09-20T08:31:23;11.38;;;5.40;;
45328;SDS011;31063;48.356;10.896;2022-09-20T08:33:51;11.27;;;4.55;;
45328;SDS011;31063;48.356;10.896;2022-09-20T08:36:18;11.18;;;4.90;;
45328;SDS011;31063;48.356;10.896;2022-09-20T08:38:46;12.43;;;4.80;;
45328;SDS011;31063;48.356;10.896;2022-09-20T08:41:19;11.80;;;4.82;;
45328;SDS011;31063;48.356;10.896;2022-09-20T08:43:59;10.88;;;4.88;;
45328;SDS011;31063;48.356;10.896;2022-09-20T08:46:26;10.65;;;4.50;;
45328;SDS011;31063;48.356;10.896;2022-09-20T08:48:55;9.23;;;4.28;;
45328;SDS011;31063;48.356;10.896;2022-09-20T08:51:29;12.85;;;5.15;;
45328;SDS011;31063;48.356;10.896;2022-09-20T08:53:58;13.23;;;4.85;;
45328;SDS011;31063;48.356;10.896;2022-09-20T08:56:31;11.32;;;4.03;;
45328;SDS011;31063;48.356;10.896;2022-09-20T08:59:00;10.30;;;4.07;;
45328;SDS011;31063;48.356;10.896;2022-09-20T09:01:27;11.75;;;4.43;;
45328;SDS011;31063;48.356;10.896;2022-09-20T09:04:16;14.38;;;5.10;;
45328;SDS011;31063;48.356;10.896;2022-09-20T09:06:45;10.32;;;4.28;;
45328;SDS011;31063;48.356;10.896;2022-09-20T09:09:25;9.05;;;4.30;;
45328;SDS011;31063;48.356;10.896;2022-09-20T09:11:53;9.98;;;3.83;;
45328;SDS011;31063;48.356;10.896;2022-09-20T09:17:16;12.88;;;3.90;;
45328;SDS011;31063;48.356;10.896;2022-09-20T09:22:10;10.43;;;3.97;;
45328;SDS011;31063;48.356;10.896;2022-09-20T09:24:47;7.95;;;4.13;;
45328;SDS011;31063;48.356;10.896;2022-09-20T09:30:21;14.15;;;4.68;;
45328;SDS011;31063;48.356;10.896;2022-09-20T09:33:55;11.27;;;4.20;;
45328;SDS011;31063;48.356;10.896;2022-09-20T09:36:13;14.32;;;3.97;;
45328;SDS011;31063;48.356;10.896;2022-09-20T09:39:14;8.63;;;3.40;;
45328;SDS011;31063;48.356;10.896;2022-09-20T09:41:46;10.68;;;3.60;;
45328;SDS011;31063;48.356;10.896;2022-09-20T09:46:45;11.52;;;3.63;;
45328;SDS011;31063;48.356;10.896;2022-09-20T09:54:24;15.23;;;4.00;;
45328;SDS011;31063;48.356;10.896;2022-09-20T10:02:08;17.15;;;4.20;;
45328;SDS011;31063;48.356;10.896;2022-09-20T10:07:27;11.52;;;3.53;;
45328;SDS011;31063;48.356;10.896;2022-09-20T10:13:03;9.85;;;3.88;;
45328;SDS011;31063;48.356;10.896;2022-09-20T10:24:11;9.98;;;3.08;;
45328;SDS011;31063;48.356;10.896;2022-09-20T10:34:47;8.00;;;2.50;;
45328;SDS011;31063;48.356;10.896;2022-09-20T10:40:01;7.97;;;2.45;;
45328;SDS011;31063;48.356;10.896;2022-09-20T10:42:47;9.77;;;2.20;;
45328;SDS011;31063;48.356;10.896;2022-09-20T10:48:09;7.28;;;2.17;;
45328;SDS011;31063;48.356;10.896;2022-09-20T10:50:53;5.93;;;2.17;;
45328;SDS011;31063;48.356;10.896;2022-09-20T10:56:44;4.43;;;2.17;;
45328;SDS011;31063;48.356;10.896;2022-09-20T11:05:12;9.40;;;1.73;;
45328;SDS011;31063;48.356;10.896;2022-09-20T11:08:14;9.93;;;1.75;;
45328;SDS011;31063;48.356;10.896;2022-09-20T11:13:21;3.53;;;1.38;;
45328;SDS011;31063;48.356;10.896;2022-09-20T11:16:11;6.88;;;1.45;;
45328;SDS011;31063;48.356;10.896;2022-09-20T11:18:45;7.43;;;1.88;;
45328;SDS011;31063;48.356;10.896;2022-09-20T11:21:20;7.53;;;2.00;;
45328;SDS011;31063;48.356;10.896;2022-09-20T11:23:54;6.55;;;1.75;;
45328;SDS011;31063;48.356;10.896;2022-09-20T11:26:39;6.60;;;1.40;;
45328;SDS011;31063;48.356;10.896;2022-09-20T11:29:25;9.52;;;1.40;;
45328;SDS011;31063;48.356;10.896;2022-09-20T11:32:01;5.55;;;1.50;;
45328;SDS011;31063;48.356;10.896;2022-09-20T11:35:23;5.63;;;1.88;;
45328;SDS011;31063;48.356;10.896;2022-09-20T11:37:24;9.55;;;2.20;;
45328;SDS011;31063;48.356;10.896;2022-09-20T11:39:58;9.20;;;2.00;;
45328;SDS011;31063;48.356;10.896;2022-09-20T11:42:32;5.15;;;1.58;;
45328;SDS011;31063;48.356;10.896;2022-09-20T11:45:00;7.75;;;1.58;;
45328;SDS011;31063;48.356;10.896;2022-09-20T11:47:27;6.47;;;1.92;;
45328;SDS011;31063;48.356;10.896;2022-09-20T11:55:41;8.73;;;1.70;;
45328;SDS011;31063;48.356;10.896;2022-09-20T11:58:12;6.18;;;1.55;;
45328;SDS011;31063;48.356;10.896;2022-09-20T12:00:47;6.03;;;1.80;;
45328;SDS011;31063;48.356;10.896;2022-09-20T12:03:23;3.78;;;1.40;;
45328;SDS011;31063;48.356;10.896;2022-09-20T12:06:54;8.55;;;1.70;;
45328;SDS011;31063;48.356;10.896;2022-09-20T12:08:54;6.20;;;1.58;;
45328;SDS011;31063;48.356;10.896;2022-09-20T12:11:32;7.95;;;2.08;;
45328;SDS011;31063;48.356;10.896;2022-09-20T12:14:03;5.90;;;1.42;;
45328;SDS011;31063;48.356;10.896;2022-09-20T12:24:25;7.55;;;1.33;;
45328;SDS011;31063;48.356;10.896;2022-09-20T12:26:53;4.07;;;1.30;;
45328;SDS011;31063;48.356;10.896;2022-09-20T12:31:50;4.60;;;1.33;;
45328;SDS011;31063;48.356;10.896;2022-09-20T12:39:21;3.67;;;1.30;;
45328;SDS011;31063;48.356;10.896;2022-09-20T12:41:52;6.55;;;1.55;;
45328;SDS011;31063;48.356;10.896;2022-09-20T12:46:58;4.88;;;1.30;;
45328;SDS011;31063;48.356;10.896;2022-09-20T12:57:56;5.55;;;1.27;;
45328;SDS011;31063;48.356;10.896;2022-09-20T13:05:46;5.88;;;1.70;;
45328;SDS011;31063;48.356;10.896;2022-09-20T13:08:26;2.95;;;1.15;;
45328;SDS011;31063;48.356;10.896;2022-09-20T13:13:46;5.05;;;1.40;;
45328;SDS011;31063;48.356;10.896;2022-09-20T13:18:45;5.65;;;1.30;;
45328;SDS011;31063;48.356;10.896;2022-09-20T13:21:11;5.03;;;1.33;;
45328;SDS011;31063;48.356;10.896;2022-09-20T13:23:43;4.65;;;1.45;;
45328;SDS011;31063;48.356;10.896;2022-09-20T13:26:12;4.07;;;1.10;;
45328;SDS011;31063;48.356;10.896;2022-09-20T13:28:43;5.13;;;1.45;;
45328;SDS011;31063;48.356;10.896;2022-09-20T13:31:25;6.88;;;1.60;;
45328;SDS011;31063;48.356;10.896;2022-09-20T13:33:52;5.00;;;1.40;;
45328;SDS011;31063;48.356;10.896;2022-09-20T13:36:27;6.40;;;1.30;;
45328;SDS011;31063;48.356;10.896;2022-09-20T13:38:55;5.22;;;1.50;;
45328;SDS011;31063;48.356;10.896;2022-09-20T13:41:22;5.05;;;1.20;;
45328;SDS011;31063;48.356;10.896;2022-09-20T13:43:51;4.28;;;1.08;;
45328;SDS011;31063;48.356;10.896;2022-09-20T13:46:27;5.20;;;1.33;;
45328;SDS011;31063;48.356;10.896;2022-09-20T13:51:44;3.88;;;1.20;;
45328;SDS011;31063;48.356;10.896;2022-09-20T13:54:28;4.47;;;1.40;;
45328;SDS011;31063;48.356;10.896;2022-09-20T13:57:03;4.10;;;1.10;;
45328;SDS011;31063;48.356;10.896;2022-09-20T13:59:40;5.00;;;1.20;;
45328;SDS011;31063;48.356;10.896;2022-09-20T14:05:02;2.75;;;1.00;;
45328;SDS011;31063;48.356;10.896;2022-09-20T14:07:29;3.70;;;1.33;;
45328;SDS011;31063;48.356;10.896;2022-09-20T14:09:56;6.35;;;1.42;;
45328;SDS011;31063;48.356;10.896;2022-09-20T14:12:23;3.97;;;1.30;;
45328;SDS011;31063;48.356;10.896;2022-09-20T14:14:50;3.55;;;1.45;;
45328;SDS011;31063;48.356;10.896;2022-09-20T14:17:16;4.57;;;1.00;;
45328;SDS011;31063;48.356;10.896;2022-09-20T14:19:45;4.60;;;1.20;;
45328;SDS011;31063;48.356;10.896;2022-09-20T14:22:18;5.45;;;1.30;;
45328;SDS011;31063;48.356;10.896;2022-09-20T14:24:57;2.85;;;1.00;;
45328;SDS011;31063;48.356;10.896;2022-09-20T14:27:38;5.85;;;1.25;;
45328;SDS011;31063;48.356;10.896;2022-09-20T14:30:04;6.05;;;1.63;;
45328;SDS011;31063;48.356;10.896;2022-09-20T14:32:38;4.65;;;1.30;;
45328;SDS011;31063;48.356;10.896;2022-09-20T14:35:18;2.78;;;1.00;;
45328;SDS011;31063;48.356;10.896;2022-09-20T14:38:07;2.85;;;1.00;;
45328;SDS011;31063;48.356;10.896;2022-09-20T14:40:45;2.80;;;0.90;;
45328;SDS011;31063;48.356;10.896;2022-09-20T14:43:23;3.75;;;1.40;;
45328;SDS011;31063;48.356;10.896;2022-09-20T14:45:53;5.78;;;1.13;;
45328;SDS011;31063;48.356;10.896;2022-09-20T14:53:45;5.82;;;1.27;;
45328;SDS011;31063;48.356;10.896;2022-09-20T14:56:15;4.32;;;1.17;;
45328;SDS011;31063;48.356;10.896;2022-09-20T15:01:32;8.77;;;1.52;;
45328;SDS011;31063;48.356;10.896;2022-09-20T15:04:04;5.70;;;1.85;;
45328;SDS011;31063;48.356;10.896;2022-09-20T15:06:36;5.35;;;1.60;;
45328;SDS011;31063;48.356;10.896;2022-09-20T15:09:03;5.70;;;1.33;;
45328;SDS011;31063;48.356;10.896;2022-09-20T15:11:29;5.32;;;1.20;;
45328;SDS011;31063;48.356;10.896;2022-09-20T15:13:55;5.90;;;1.57;;
45328;SDS011;31063;48.356;10.896;2022-09-20T15:16:20;5.03;;;1.60;;
45328;SDS011;31063;48.356;10.896;2022-09-20T15:18:46;4.17;;;1.17;;
45328;SDS011;31063;48.356;10.896;2022-09-20T15:21:12;8.83;;;1.93;;
45328;SDS011;31063;48.356;10.896;2022-09-20T15:23:38;5.60;;;1.60;;
45328;SDS011;31063;48.356;10.896;2022-09-20T15:26:04;6.50;;;1.35;;
45328;SDS011;31063;48.356;10.896;2022-09-20T15:28:32;8.40;;;1.50;;
45328;SDS011;31063;48.356;10.896;2022-09-20T15:30:58;5.43;;;1.27;;
45328;SDS011;31063;48.356;10.896;2022-09-20T15:33:24;5.90;;;1.43;;
45328;SDS011;31063;48.356;10.896;2022-09-20T15:35:53;3.92;;;1.42;;
45328;SDS011;31063;48.356;10.896;2022-09-20T15:38:18;4.17;;;1.33;;
45328;SDS011;31063;48.356;10.896;2022-09-20T15:40:45;6.50;;;1.60;;
45328;SDS011;31063;48.356;10.896;2022-09-20T15:43:12;8.35;;;1.77;;
45328;SDS011;31063;48.356;10.896;2022-09-20T15:45:48;6.65;;;1.45;;
45328;SDS011;31063;48.356;10.896;2022-09-20T15:48:16;5.55;;;1.67;;
45328;SDS011;31063;48.356;10.896;2022-09-20T15:53:31;5.55;;;1.52;;
45328;SDS011;31063;48.356;10.896;2022-09-20T15:55:58;8.88;;;1.90;;
45328;SDS011;31063;48.356;10.896;2022-09-20T15:58:28;7.78;;;1.80;;
45328;SDS011;31063;48.356;10.896;2022-09-20T16:01:04;8.43;;;1.73;;
45328;SDS011;31063;48.356;10.896;2022-09-20T16:03:32;5.18;;;1.70;;
45328;SDS011;31063;48.356;10.896;2022-09-20T16:08:25;6.18;;;1.63;;
45328;SDS011;31063;48.356;10.896;2022-09-20T16:10:55;8.68;;;1.65;;
45328;SDS011;31063;48.356;10.896;2022-09-20T16:13:22;5.60;;;1.90;;
45328;SDS011;31063;48.356;10.896;2022-09-20T16:15:52;6.07;;;1.40;;
45328;SDS011;31063;48.356;10.896;2022-09-20T16:18:21;5.35;;;1.50;;
45328;SDS011;31063;48.356;10.896;2022-09-20T16:21:07;8.90;;;2.17;;
45328;SDS011;31063;48.356;10.896;2022-09-20T16:23:34;5.65;;;1.60;;
45328;SDS011;31063;48.356;10.896;2022-09-20T16:26:03;3.38;;;1.17;;
45328;SDS011;31063;48.356;10.896;2022-09-20T16:28:38;6.65;;;1.90;;
45328;SDS011;31063;48.356;10.896;2022-09-20T16:31:04;7.75;;;1.80;;
45328;SDS011;31063;48.356;10.896;2022-09-20T16:33:31;5.93;;;1.50;;
45328;SDS011;31063;48.356;10.896;2022-09-20T16:38:23;5.75;;;1.92;;
45328;SDS011;31063;48.356;10.896;2022-09-20T16:40:49;8.40;;;2.17;;
45328;SDS011;31063;48.356;10.896;2022-09-20T16:43:19;8.85;;;2.00;;
45328;SDS011;31063;48.356;10.896;2022-09-20T16:45:48;7.07;;;2.50;;
45328;SDS011;31063;48.356;10.896;2022-09-20T16:48:23;8.30;;;2.10;;
45328;SDS011;31063;48.356;10.896;2022-09-20T16:50:54;7.28;;;1.70;;
45328;SDS011;31063;48.356;10.896;2022-09-20T16:53:21;7.47;;;1.77;;
45328;SDS011;31063;48.356;10.896;2022-09-20T16:55:46;8.13;;;1.57;;
45328;SDS011;31063;48.356;10.896;2022-09-20T16:58:13;8.80;;;1.83;;
45328;SDS011;31063;48.356;10.896;2022-09-20T17:00:38;7.07;;;1.67;;
45328;SDS011;31063;48.356;10.896;2022-09-20T17:03:04;6.20;;;1.40;;
45328;SDS011;31063;48.356;10.896;2022-09-20T17:05:30;9.50;;;1.97;;
45328;SDS011;31063;48.356;10.896;2022-09-20T17:07:55;7.13;;;1.67;;
45328;SDS011;31063;48.356;10.896;2022-09-20T17:10:21;6.83;;;2.17;;
45328;SDS011;31063;48.356;10.896;2022-09-20T17:12:48;7.55;;;1.75;;
45328;SDS011;31063;48.356;10.896;2022-09-20T17:15:17;6.65;;;2.17;;
45328;SDS011;31063;48.356;10.896;2022-09-20T17:17:46;8.70;;;2.63;;
45328;SDS011;31063;48.356;10.896;2022-09-20T17:20:11;10.05;;;2.78;;
45328;SDS011;31063;48.356;10.896;2022-09-20T17:22:37;6.85;;;2.47;;
45328;SDS011;31063;48.356;10.896;2022-09-20T17:25:03;5.90;;;2.57;;
45328;SDS011;31063;48.356;10.896;2022-09-20T17:27:30;9.15;;;2.40;;
45328;SDS011;31063;48.356;10.896;2022-09-20T17:29:56;14.10;;;2.38;;
45328;SDS011;31063;48.356;10.896;2022-09-20T17:32:21;8.43;;;2.80;;
45328;SDS011;31063;48.356;10.896;2022-09-20T17:34:47;12.45;;;2.90;;
45328;SDS011;31063;48.356;10.896;2022-09-20T17:37:13;6.53;;;2.80;;
45328;SDS011;31063;48.356;10.896;2022-09-20T17:39:39;6.65;;;2.50;;
45328;SDS011;31063;48.356;10.896;2022-09-20T17:42:05;8.07;;;2.43;;
45328;SDS011;31063;48.356;10.896;2022-09-20T17:44:31;6.45;;;2.05;;
45328;SDS011;31063;48.356;10.896;2022-09-20T17:47:00;4.88;;;2.28;;
45328;SDS011;31063;48.356;10.896;2022-09-20T17:49:26;5.90;;;2.30;;
45328;SDS011;31063;48.356;10.896;2022-09-20T17:51:53;8.10;;;2.67;;
45328;SDS011;31063;48.356;10.896;2022-09-20T17:54:19;6.85;;;2.40;;
45328;SDS011;31063;48.356;10.896;2022-09-20T17:56:49;5.18;;;2.28;;
45328;SDS011;31063;48.356;10.896;2022-09-20T17:59:17;6.22;;;2.38;;
45328;SDS011;31063;48.356;10.896;2022-09-20T18:01:45;6.45;;;2.03;;
45328;SDS011;31063;48.356;10.896;2022-09-20T18:04:13;8.60;;;2.60;;
45328;SDS011;31063;48.356;10.896;2022-09-20T18:06:39;10.63;;;2.20;;
45328;SDS011;31063;48.356;10.896;2022-09-20T18:09:09;8.10;;;2.80;;
45328;SDS011;31063;48.356;10.896;2022-09-20T18:11:38;10.93;;;2.90;;
45328;SDS011;31063;48.356;10.896;2022-09-20T18:14:13;7.95;;;2.75;;
45328;SDS011;31063;48.356;10.896;2022-09-20T18:16:39;10.98;;;3.13;;
45328;SDS011;31063;48.356;10.896;2022-09-20T18:19:07;8.07;;;2.70;;
45328;SDS011;31063;48.356;10.896;2022-09-20T18:21:33;8.23;;;2.67;;
45328;SDS011;31063;48.356;10.896;2022-09-20T18:24:00;5.50;;;2.40;;
45328;SDS011;31063;48.356;10.896;2022-09-20T18:26:29;8.55;;;2.55;;
45328;SDS011;31063;48.356;10.896;2022-09-20T18:29:03;9.07;;;2.72;;
45328;SDS011;31063;48.356;10.896;2022-09-20T18:34:02;8.57;;;2.60;;
45328;SDS011;31063;48.356;10.896;2022-09-20T18:36:30;5.20;;;1.85;;
45328;SDS011;31063;48.356;10.896;2022-09-20T18:38:56;5.38;;;1.77;;
45328;SDS011;31063;48.356;10.896;2022-09-20T18:41:24;3.53;;;1.85;;
45328;SDS011;31063;48.356;10.896;2022-09-20T18:43:52;3.00;;;1.88;;
45328;SDS011;31063;48.356;10.896;2022-09-20T18:46:19;4.40;;;1.80;;
45328;SDS011;31063;48.356;10.896;2022-09-20T18:48:49;3.63;;;1.90;;
45328;SDS011;31063;48.356;10.896;2022-09-20T18:51:16;3.22;;;1.63;;
45328;SDS011;31063;48.356;10.896;2022-09-20T18:53:42;3.85;;;1.80;;
45328;SDS011;31063;48.356;10.896;2022-09-20T18:56:10;4.23;;;2.10;;
45328;SDS011;31063;48.356;10.896;2022-09-20T18:58:44;3.03;;;1.88;;
45328;SDS011;31063;48.356;10.896;2022-09-20T19:24:04;2.65;;;1.38;;
45328;SDS011;31063;48.356;10.896;2022-09-20T19:26:36;3.83;;;1.33;;
45328;SDS011;31063;48.356;10.896;2022-09-20T19:29:02;4.60;;;1.00;;
45328;SDS011;31063;48.356;10.896;2022-09-20T19:31:35;2.60;;;1.30;;
45328;SDS011;31063;48.356;10.896;2022-09-20T19:34:02;2.25;;;1.15;;
45328;SDS011;31063;48.356;10.896;2022-09-20T19:52:37;3.15;;;1.40;;
45328;SDS011;31063;48.356;10.896;2022-09-20T19:55:03;5.82;;;1.70;;
45328;SDS011;31063;48.356;10.896;2022-09-20T19:57:33;4.10;;;1.48;;
45328;SDS011;31063;48.356;10.896;2022-09-20T20:00:04;2.85;;;1.63;;
45328;SDS011;31063;48.356;10.896;2022-09-20T20:02:31;3.25;;;1.40;;
45328;SDS011;31063;48.356;10.896;2022-09-20T20:04:57;4.47;;;1.77;;
45328;SDS011;31063;48.356;10.896;2022-09-20T20:12:38;4.43;;;2.70;;
45328;SDS011;31063;48.356;10.896;2022-09-20T20:20:37;5.03;;;2.13;;
45328;SDS011;31063;48.356;10.896;2022-09-20T20:26:07;4.72;;;2.10;;
45328;SDS011;31063;48.356;10.896;2022-09-20T20:28:36;3.35;;;1.90;;
45328;SDS011;31063;48.356;10.896;2022-09-20T20:31:02;3.83;;;1.93;;
45328;SDS011;31063;48.356;10.896;2022-09-20T20:33:29;6.13;;;1.90;;
45328;SDS011;31063;48.356;10.896;2022-09-20T20:35:57;2.90;;;1.77;;
45328;SDS011;31063;48.356;10.896;2022-09-20T20:38:24;5.45;;;2.65;;
45328;SDS011;31063;48.356;10.896;2022-09-20T20:41:00;3.83;;;2.20;;
45328;SDS011;31063;48.356;10.896;2022-09-20T20:43:38;3.25;;;2.03;;
45328;SDS011;31063;48.356;10.896;2022-09-20T20:46:06;5.15;;;2.10;;
45328;SDS011;31063;48.356;10.896;2022-09-20T20:48:33;3.58;;;2.15;;
45328;SDS011;31063;48.356;10.896;2022-09-20T20:53:37;5.18;;;2.60;;
45328;SDS011;31063;48.356;10.896;2022-09-20T20:56:08;5.63;;;2.95;;
45328;SDS011;31063;48.356;10.896;2022-09-20T20:58:39;4.93;;;2.90;;
45328;SDS011;31063;48.356;10.896;2022-09-20T21:01:08;5.25;;;3.53;;
45328;SDS011;31063;48.356;10.896;2022-09-20T21:03:39;7.25;;;3.50;;
45328;SDS011;31063;48.356;10.896;2022-09-20T21:06:06;6.03;;;3.40;;
45328;SDS011;31063;48.356;10.896;2022-09-20T21:08:33;7.88;;;3.33;;
45328;SDS011;31063;48.356;10.896;2022-09-20T21:11:04;7.10;;;3.60;;
45328;SDS011;31063;48.356;10.896;2022-09-20T21:13:37;6.18;;;3.60;;
45328;SDS011;31063;48.356;10.896;2022-09-20T21:18:33;5.60;;;3.42;;
45328;SDS011;31063;48.356;10.896;2022-09-20T21:20:59;5.07;;;3.30;;
45328;SDS011;31063;48.356;10.896;2022-09-20T21:23:26;4.18;;;3.05;;
45328;SDS011;31063;48.356;10.896;2022-09-20T21:26:02;5.88;;;3.30;;
45328;SDS011;31063;48.356;10.896;2022-09-20T21:28:32;8.15;;;4.05;;
45328;SDS011;31063;48.356;10.896;2022-09-20T21:31:00;6.60;;;3.20;;
45328;SDS011;31063;48.356;10.896;2022-09-20T21:33:29;5.18;;;2.85;;